Lake Harmony, Pennsylvania
Current Conditions -  °F | °C
As of 5:53 AM on Friday 24 Oct 2014 (Local Time) from KMPO Reporting Station
Overcast Overcast  
Wind Chill: 38°   Ceiling: 900
Heat Index: 46°   Visibility: 10mi
Dew Point: 41°   Wind: 23mph
Humidity: 83%   Direction: 330°NNW
Pressure: 29.82"   Gusts: 36mph
Location:  41.06°N, 75.59°W
Report Text: KMPO 240953Z AUTO 33020G31KT 10SM OVC009 08/05 A2982 RMK AO2 PK WND 31035/0856 SLP104 T00780050 TSNO PNO $
Loading
Personal Weather Stations






























Interactive Weather Map
Tropical Storm Tracking
New forecast layout! Learn more

10-Day Weather Forecast

Advertisements
Track Severe Weather on mobile